Polar Ranger — WDC8652 — position and weather

sailwx.info

Track history (hours):
 
Tides and Currents Weather Stations Pressure Air Temp Water Temp Dewpoint Dewpoint Depression Visibility Wind Speed Wind Dir Waves Ship Positions

Polar Ranger

Owner: Dunlap Towing Co., LaConner, WA. More information available from US FCC via Universal Licensing System and Coast Guard Vessel Documentation Center.

Last reported at 2017-Mar-24 22:17 UTC. Time now 2017-Mar-26 09:14 UTC.
Position N 47°59' W 122°13'.

Type: Towing. MMSI: 367090860.

Date/timePositionNaut miles runAvg speedWind from/ knotsBaromVisibWave heightAir tempDewpointWater temp
2017-Mar-24 22:17N 47°59' W 122°13'4 6.0
2017-Mar-24 21:33N 47°57' W 122°19'1312.7
2017-Mar-24 20:34N 47°45' W 122°25'9 8.9
2017-Mar-24 19:33N 47°36' W 122°23'5 5.3
2017-Mar-24 18:34N 47°40' W 122°28'9 9.0
2017-Mar-24 17:34N 47°49' W 122°28'8 8.2
2017-Mar-24 16:33N 47°56' W 122°33'15 7.0
2017-Mar-24 14:29N 48°09' W 122°44'6 6.4
2017-Mar-24 13:34N 48°11' W 122°52'8 8.3
2017-Mar-24 12:34N 48°12' W 123°05'9 9.1
2017-Mar-24 11:34N 48°12' W 123°18'1010.3
2017-Mar-24 10:34N 48°12' W 123°34'1010.2
2017-Mar-24 09:33N 48°12' W 123°49'9 9.2
2017-Mar-24 08:31N 48°14' W 124°03'9 9.0
2017-Mar-24 07:33N 48°18' W 124°15'1110.8
2017-Mar-24 06:34N 48°23' W 124°29'1010.0
2017-Mar-24 05:34N 48°27' W 124°43'7 7.3
2017-Mar-24 04:33N 48°27' W 124°54'7 7.2
2017-Mar-24 03:33N 48°21' W 125°01'7 7.5
2017-Mar-24 02:34N 48°15' W 125°06'  
Track history (hours):
 
Tides and Currents Weather Stations Pressure Air Temp Water Temp Dewpoint Dewpoint Depression Visibility Wind Speed Wind Dir Waves Ship Positions

Polar Ranger

Owner: Dunlap Towing Co., LaConner, WA. More information available from US FCC via Universal Licensing System and Coast Guard Vessel Documentation Center.

Last reported at 2017-Mar-24 22:17 UTC. Time now 2017-Mar-26 09:14 UTC.
Position N 47°59' W 122°13'.

Type: Towing. MMSI: 367090860.

Date/timePositionNaut miles runAvg speedWind from/ knotsBaromVisibWave heightAir tempDewpointWater temp
2017-Mar-24 22:17N 47°59' W 122°13'4 6.0
2017-Mar-24 21:33N 47°57' W 122°19'1312.7
2017-Mar-24 20:34N 47°45' W 122°25'9 8.9
2017-Mar-24 19:33N 47°36' W 122°23'5 5.3
2017-Mar-24 18:34N 47°40' W 122°28'9 9.0
2017-Mar-24 17:34N 47°49' W 122°28'8 8.2
2017-Mar-24 16:33N 47°56' W 122°33'15 7.0
2017-Mar-24 14:29N 48°09' W 122°44'6 6.4
2017-Mar-24 13:34N 48°11' W 122°52'8 8.3
2017-Mar-24 12:34N 48°12' W 123°05'9 9.1
2017-Mar-24 11:34N 48°12' W 123°18'1010.3
2017-Mar-24 10:34N 48°12' W 123°34'1010.2
2017-Mar-24 09:33N 48°12' W 123°49'9 9.2
2017-Mar-24 08:31N 48°14' W 124°03'9 9.0
2017-Mar-24 07:33N 48°18' W 124°15'1110.8
2017-Mar-24 06:34N 48°23' W 124°29'1010.0
2017-Mar-24 05:34N 48°27' W 124°43'7 7.3
2017-Mar-24 04:33N 48°27' W 124°54'7 7.2
2017-Mar-24 03:33N 48°21' W 125°01'7 7.5
2017-Mar-24 02:34N 48°15' W 125°06'  

Dump ship's entire track history